Ann Arbor, Michigan
Current Conditions -  °F | °C
As of 11:53 PM on Wednesday 22 Oct 2014 (Local Time) from KARB Reporting Station
Clear Clear  
Wind Chill: 35°   Ceiling: Unl
Heat Index: 39°   Visibility: NA
Dew Point: 35°   Wind: 6mph
Humidity: 86%   Direction: 30°NNE
Pressure: 30.28"   Gusts: NA
Location:  42.28°N, 83.75°W
Report Text: KARB 230353Z AUTO 03005KT CLR 04/02 A3028 RMK AO2 SLP258 T00390017 $
Loading
Personal Weather Stations






























Interactive Weather Map
Tropical Storm Tracking
New forecast layout! Learn more

10-Day Weather Forecast

Advertisements
Track Severe Weather on mobile